Bookmark and Share
Track history (hours):
 

Monte

Last reported at 2014-Apr-17 17:32 UTC. Time now 2014-Apr-20 00:54 UTC.
Position N 50°10' W 001°55'.

Length 104 m; draft 6.3 m.

Type: Cargo ship. MMSI: 305777000.

NotesDate/timePositionNaut miles runAvg speedWind from/ knotsBaromVisibWave heightAir tempDewpointWater temp
2014-Apr-17 17:32N 50°10' W 001°55'1211.7
2014-Apr-17 16:33N 50°14' W 001°38'1312.9
2014-Apr-17 15:33N 50°17' W 001°19'1313.3
2014-Apr-17 14:33N 50°21' W 000°59'1211.7
2014-Apr-17 13:33N 50°24' W 000°41'1010.3
2014-Apr-17 12:33N 50°26' W 000°25'9 9.2
2014-Apr-17 11:33N 50°29' W 000°11'16 7.8
2014-Apr-17 09:32N 50°33' E 000°13'8 7.7
2014-Apr-17 08:33N 50°35' E 000°24'9 9.3
2014-Apr-17 07:33N 50°38' E 000°38'1110.8
2014-Apr-17 06:33N 50°44' E 000°53'1111.1
2014-Apr-17 05:33N 50°49' E 001°08'1110.6
2014-Apr-17 04:33N 50°56' E 001°20'9 9.1
2014-Apr-17 03:33N 51°03' E 001°30'7 7.4
2014-Apr-17 02:33N 51°08' E 001°38'7 6.7
2014-Apr-17 01:33N 51°13' E 001°45'7 7.4
2014-Apr-17 00:33N 51°20' E 001°51'8 8.4
2014-Apr-16 23:33N 51°25' E 002°01'10 9.7
2014-Apr-16 22:33N 51°21' E 002°16'1111.0
2014-Apr-16 21:33N 51°23' E 002°33'1010.3
2014-Apr-16 20:33N 51°22' E 002°50'1211.7
2014-Apr-16 19:33N 51°24' E 003°08'1312.6
2014-Apr-16 18:33N 51°25' E 003°28'1211.6
2014-Apr-16 17:33N 51°22' E 003°46'1010.3
2014-Apr-16 16:33N 51°26' E 004°01'9 9.3
2014-Apr-16 15:33N 51°21' E 004°14'2 2.1
2014-Apr-16 14:33N 51°21' E 004°18'1 0.6
2014-Apr-16 13:23N 51°22' E 004°17'0 0.0
2014-Apr-16 12:32N 51°22' E 004°17'0 0.0
2014-Apr-16 11:29N 51°22' E 004°17'0 0.0
2014-Apr-16 10:26N 51°22' E 004°17'0 0.0
2014-Apr-16 09:32N 51°22' E 004°17'0 0.0
2014-Apr-16 08:32N 51°22' E 004°17'0 0.0
2014-Apr-16 07:32N 51°22' E 004°17'0 0.0
2014-Apr-16 06:26N 51°22' E 004°17'0 0.0
2014-Apr-16 05:23N 51°22' E 004°17'0 0.0
2014-Apr-16 04:32N 51°22' E 004°17'0 0.0
2014-Apr-16 03:32N 51°22' E 004°17'0 0.0
2014-Apr-16 02:32N 51°22' E 004°17'0 0.0
2014-Apr-16 01:14N 51°22' E 004°17'0 0.0
2014-Apr-16 00:32N 51°22' E 004°17'0 0.0
2014-Apr-15 23:28N 51°22' E 004°17'0 0.0
2014-Apr-15 22:13N 51°22' E 004°17'0 0.0
2014-Apr-15 21:31N 51°22' E 004°17'0 0.0
2014-Apr-15 20:22N 51°22' E 004°17'0 0.0
2014-Apr-15 16:25N 51°22' E 004°17'0 0.0
2014-Apr-15 15:22N 51°22' E 004°17'1 0.2
2014-Apr-15 11:33N 51°21' E 004°18'0 0.5
2014-Apr-15 10:34N 51°21' E 004°17'7 6.3
2014-Apr-15 09:30N 51°22' E 004°07'7 6.9
2014-Apr-15 08:34N 51°23' E 003°56'9 9.3
2014-Apr-15 07:34N 51°24' E 003°42'1010.1
2014-Apr-15 06:34N 51°30' E 003°28'1110.9
2014-Apr-15 05:34N 51°39' E 003°19'26 6.3
2014-Apr-15 01:30N 52°01' E 003°40'8 8.3
2014-Apr-15 00:33N 52°03' E 003°53'7 6.9
2014-Apr-14 23:34N 51°60' E 004°03'1110.7
2014-Apr-14 22:33N 51°54' E 004°18'1 0.8
2014-Apr-14 21:31N 51°53' E 004°17'0 0.0
2014-Apr-14 19:31N 51°53' E 004°17'0 0.0
2014-Apr-14 18:31N 51°53' E 004°17'0 0.0
2014-Apr-14 16:31N 51°53' E 004°17'0 0.0
2014-Apr-14 07:31N 51°53' E 004°17'0 0.0
2014-Apr-14 05:31N 51°53' E 004°17'0 0.0
2014-Apr-13 22:18N 51°53' E 004°17'0 0.0
2014-Apr-13 21:30N 51°53' E 004°17'0 0.0
2014-Apr-13 20:25N 51°53' E 004°17'158157.0
2014-Apr-13 19:24N 51°53' E 000°00'158175.9
2014-Apr-13 18:30N 51°53' E 004°17'0 0.0
2014-Apr-13 17:21N 51°53' E 004°17'0 0.0
2014-Apr-13 16:30N 51°53' E 004°17'0 0.0
2014-Apr-13 15:06N 51°53' E 004°17'0 0.0
2014-Apr-13 14:30N 51°53' E 004°17'0 0.0
2014-Apr-13 12:33N 51°53' E 004°17'6 5.7
2014-Apr-13 11:31N 51°57' E 004°10'104 8.1
2014-Apr-12 22:33N 53°36' E 005°08'11 9.6
2014-Apr-12 21:26N 53°39' E 005°25'8 9.6
2014-Apr-12 20:34N 53°42' E 005°39'9 9.3
2014-Apr-12 19:33N 53°45' E 005°54'35 8.7
2014-Apr-12 15:33N 53°54' E 006°51'1010.3
2014-Apr-12 14:33N 53°57' E 007°08'1111.1
2014-Apr-12 13:33N 53°59' E 007°26'1110.9
2014-Apr-12 12:33N 54°02' E 007°44'1110.8
2014-Apr-12 11:33N 54°01' E 008°03'1110.8
2014-Apr-12 10:33N 54°00' E 008°21'1010.0
2014-Apr-12 09:34N 53°58' E 008°37'8 8.1
2014-Apr-12 08:33N 53°51' E 008°46'8 7.6
2014-Apr-12 07:33N 53°51' E 008°59'6 6.5
2014-Apr-12 06:33N 53°54' E 009°09'3 3.2
2014-Apr-12 05:34N 53°56' E 009°13'8 8.1
2014-Apr-12 04:34N 54°03' E 009°18'7 6.7
2014-Apr-12 03:33N 54°09' E 009°23'8 6.8
2014-Apr-12 02:23N 54°13' E 009°35'6 6.8
2014-Apr-12 01:32N 54°18' E 009°41'50 7.1
2014-Apr-11 18:31N 54°36' E 011°01'8 8.7
2014-Apr-11 17:33N 54°35' E 011°15'9 8.8
2014-Apr-11 16:33N 54°31' E 011°29'9 9.2
2014-Apr-11 15:33N 54°27' E 011°43'9 9.1
2014-Apr-11 14:32N 54°27' E 011°59'59 9.8
2014-Apr-11 08:32N 54°57' E 013°28'1010.2
2014-Apr-11 07:33N 55°00' E 013°44'1010.2
2014-Apr-11 06:33N 55°04' E 014°00'2010.0
2014-Apr-11 04:33N 55°19' E 014°24'10 9.9
2014-Apr-11 03:33N 55°26' E 014°35'1010.2
2014-Apr-11 02:32N 55°32' E 014°50'2410.4
2014-Apr-11 00:15N 55°44' E 015°27'1810.5
2014-Apr-10 22:33N 55°52' E 015°55'1110.5
2014-Apr-10 21:33N 55°58' E 016°11'1110.7
2014-Apr-10 20:33N 56°03' E 016°28'31110.0
2014-Apr-09 13:33N 59°40' E 023°28'1010.2
2014-Apr-09 12:33N 59°42' E 023°48'9010.0
2014-Apr-09 03:33N 60°01' E 026°42'102 9.8
2014-Apr-08 17:10N 59°54' E 030°05'5 0.3
2014-Apr-08 02:13N 59°53' E 030°14'  

Dump ship's entire track history

sailing weather and tide predictions

Monte — V2FS2 — position and weather